Berlin Heights, Ohio
Current Conditions -  °F | °C
As of 5:53 AM on Monday 20 Oct 2014 (Local Time) from KLPR Reporting Station
Broken Clouds Broken Clouds  
Wind Chill: 43°   Ceiling: 7500
Heat Index: 47°   Visibility: 10mi
Dew Point: 39°   Wind: 9mph
Humidity: 74%   Direction: 210°SSW
Pressure: 29.96"   Gusts: NA
Location:  41.33°N, 82.49°W
Report Text: KLPR 200953Z AUTO 21008KT 10SM BKN075 08/04 A2996 RMK AO2 RAB16E26 SLP148 P0000 T00830039 TSNO
Loading
Personal Weather Stations






























Interactive Weather Map
Tropical Storm Tracking
New forecast layout! Learn more

10-Day Weather Forecast

Advertisements
Track Severe Weather on mobile